KRSW/RSW METAR and TAF weather

Enter ICAO airport designator
Station Type Date Time Source
KRSW METAR 2022/12/02 23:53 UTC NOAA

KRSW 022353Z 07007KT 10SM SCT045 SCT055 23/17 A3025 RMK AO2 SLP242 T02280172 10283 20228 53019


Station Type Date Time Source
KRSW Decoded METAR 2022/12/02 23:53 UTC NOAA

FORT MYERS SW FL INTERNATIONAL AIRPORT , FL, United States (KRSW) 26-32N 081-46W 9M
Dec 02, 2022 - 06:53 PM EST / 2022.12.02 2353 UTC
Wind: from the ENE (070 degrees) at 8 MPH (7 KT):0
Visibility: 10 mile(s):0
Sky conditions: partly cloudy
Temperature: 73.0 F (22.8 C)
Dew Point: 63.0 F (17.2 C)
Relative Humidity: 70%
Pressure (altimeter): 30.25 in. Hg (1024 hPa)
Pressure tendency: 0.06 inches (1.9 hPa) higher than three hours ago
ob: KRSW 022353Z 07007KT 10SM SCT045 SCT055 23/17 A3025 RMK AO2 SLP242 T02280172 10283 20228 53019
cycle: 0

Station Type Date Time Source
KRSW TAF 2022/12/02 18:51 UTC NOAA

TAF KRSW 021745Z 0218/0318 09012G20KT P6SM FEW250
FM022300 07009KT P6SM SKC
FM030300 06004KT P6SM SKC
FM031400 08008KT P6SM SKC

Example: see airport list